Time;durP1;ratioP1;P1;durP2;ratioP2;P2;SDS_P1;SDS_P2;PMS_P1;PMS_P2;Temp;Humidity;BMP_temperature;BMP_pressure;BME280_temperature;BME280_humidity;BME280_pressure;Samples;Min_cycle;Max_cycle;Signal;HPM_P1;HPM_P2
2021/04/26 00:01:39;;;;;;;1.95;0.70;;;13.10;47.10;;;;;;6168376;23;20392;-75
2021/04/26 00:04:05;;;;;;;4.50;0.95;;;13.10;47.20;;;;;;6169517;23;20013;-76
2021/04/26 00:06:30;;;;;;;4.20;1.10;;;13.10;47.40;;;;;;6161289;23;20013;-77
2021/04/26 00:08:56;;;;;;;3.80;0.93;;;13.00;47.40;;;;;;6158618;23;20014;-75
2021/04/26 00:11:22;;;;;;;2.97;0.77;;;13.00;47.40;;;;;;6158837;23;20080;-76
2021/04/26 00:13:48;;;;;;;4.15;0.98;;;13.00;47.40;;;;;;6168304;23;20010;-75
2021/04/26 00:16:14;;;;;;;5.40;1.15;;;13.00;47.50;;;;;;6159473;23;20481;-76
2021/04/26 00:18:40;;;;;;;4.57;0.82;;;13.00;47.60;;;;;;6169248;23;20312;-77
2021/04/26 00:21:06;;;;;;;4.43;1.00;;;13.00;47.60;;;;;;6168757;23;20025;-76
2021/04/26 00:23:31;;;;;;;4.28;0.90;;;13.00;47.60;;;;;;6133243;23;20021;-76
2021/04/26 00:25:58;;;;;;;4.80;0.70;;;13.00;47.70;;;;;;6168213;23;20020;-76
2021/04/26 00:28:23;;;;;;;4.20;0.65;;;13.00;47.90;;;;;;6159407;23;20013;-75
2021/04/26 00:30:50;;;;;;;3.70;0.93;;;13.00;48.00;;;;;;6168216;23;20013;-75
2021/04/26 00:33:16;;;;;;;3.97;1.10;;;13.00;48.00;;;;;;6158085;23;20437;-77
2021/04/26 00:35:43;;;;;;;5.00;0.88;;;12.90;48.10;;;;;;6158523;23;20029;-76
2021/04/26 00:38:08;;;;;;;6.05;1.00;;;13.00;48.10;;;;;;6168612;23;20009;-76
2021/04/26 00:40:34;;;;;;;4.38;0.90;;;12.90;48.00;;;;;;6168215;23;20017;-76
2021/04/26 00:43:00;;;;;;;3.67;0.50;;;13.00;48.00;;;;;;6168536;23;20017;-76
2021/04/26 00:45:26;;;;;;;2.95;0.75;;;12.90;48.00;;;;;;6168015;23;20084;-76
2021/04/26 00:47:53;;;;;;;3.33;0.80;;;12.90;48.20;;;;;;6158695;23;20354;-77
2021/04/26 00:50:22;;;;;;;5.10;1.02;;;12.90;48.30;;;;;;6168119;23;20009;-75
2021/04/26 00:52:50;;;;;;;2.38;0.90;;;12.90;48.30;;;;;;6168498;23;20013;-75
2021/04/26 00:55:17;;;;;;;2.63;0.90;;;12.90;48.30;;;;;;6167697;23;20013;-76
2021/04/26 00:57:43;;;;;;;3.30;0.73;;;12.90;48.20;;;;;;6159172;23;20343;-76
2021/04/26 01:00:10;;;;;;;3.42;0.88;;;12.80;48.20;;;;;;6168254;23;20009;-78
2021/04/26 01:02:37;;;;;;;2.92;0.65;;;12.80;48.30;;;;;;6168546;23;20024;-75
2021/04/26 01:05:07;;;;;;;5.30;1.00;;;12.80;48.30;;;;;;6158133;23;20198;-78
2021/04/26 01:07:35;;;;;;;2.75;0.75;;;12.80;48.20;;;;;;6168191;23;20411;-76
2021/04/26 01:10:06;;;;;;;2.58;0.68;;;12.80;48.30;;;;;;6167438;23;20272;-75
2021/04/26 01:13:11;;;;;;;3.17;0.80;;;12.70;48.40;;;;;;6167599;23;20422;-76
2021/04/26 01:15:55;;;;;;;;;;;12.70;48.50;;;;;;6094538;23;20013;-76
2021/04/26 01:18:31;;;;;;;3.70;1.13;;;12.70;48.50;;;;;;6168017;23;19965;-76
2021/04/26 01:21:27;;;;;;;4.40;0.75;;;12.70;48.60;;;;;;6168812;23;20041;-76
2021/04/26 01:24:01;;;;;;;2.70;0.82;;;12.70;48.50;;;;;;6157362;23;20108;-77
2021/04/26 01:26:40;;;;;;;4.03;1.05;;;12.70;48.60;;;;;;6168569;23;20014;-75
2021/04/26 01:29:34;;;;;;;3.67;0.60;;;12.70;48.50;;;;;;6167798;23;20017;-76
2021/04/26 01:32:18;;;;;;;2.65;0.90;;;12.70;48.40;;;;;;6167619;23;20354;-75
2021/04/26 01:34:46;;;;;;;4.30;1.05;;;12.60;48.30;;;;;;6167508;23;20083;-75
2021/04/26 01:37:14;;;;;;;3.13;0.88;;;12.60;48.30;;;;;;6167704;23;20335;-77
2021/04/26 01:39:42;;;;;;;4.82;1.48;;;12.60;48.30;;;;;;6168133;23;20021;-74
2021/04/26 01:42:11;;;;;;;3.22;0.70;;;12.60;48.30;;;;;;6167988;23;20014;-75
2021/04/26 01:44:40;;;;;;;4.50;0.80;;;12.60;48.40;;;;;;6167761;23;20068;-75
2021/04/26 01:47:07;;;;;;;2.13;0.98;;;12.60;48.50;;;;;;6157986;23;20014;-76
2021/04/26 01:49:34;;;;;;;4.32;0.80;;;12.60;48.60;;;;;;6167721;23;20072;-76
2021/04/26 01:52:02;;;;;;;3.70;1.00;;;12.60;48.70;;;;;;6168159;23;20014;-77
2021/04/26 01:54:28;;;;;;;1.92;0.68;;;12.60;48.70;;;;;;6167563;23;20021;-77
2021/04/26 01:56:55;;;;;;;4.20;0.85;;;12.60;48.70;;;;;;6167780;23;20014;-75
2021/04/26 01:59:22;;;;;;;1.83;0.65;;;12.60;48.70;;;;;;6158248;23;20129;-75
2021/04/26 02:01:53;;;;;;;2.75;0.80;;;12.60;48.60;;;;;;6167732;23;20013;-77
2021/04/26 02:04:20;;;;;;;3.72;0.82;;;12.60;48.60;;;;;;6168033;23;20080;-76
2021/04/26 02:06:48;;;;;;;3.15;1.00;;;12.50;48.50;;;;;;6158795;23;20083;-76
2021/04/26 02:09:15;;;;;;;2.03;0.88;;;12.50;48.50;;;;;;6161288;23;20049;-75
2021/04/26 02:11:41;;;;;;;5.93;0.90;;;12.50;48.50;;;;;;6171020;23;20287;-76
2021/04/26 02:14:11;;;;;;;4.40;1.02;;;12.50;48.60;;;;;;6171186;23;20088;-76
2021/04/26 02:16:37;;;;;;;4.25;0.80;;;12.50;48.60;;;;;;6171764;23;20017;-76
2021/04/26 02:19:03;;;;;;;3.63;0.65;;;12.50;48.60;;;;;;6171502;23;20009;-76
2021/04/26 02:21:29;;;;;;;3.47;0.75;;;12.50;48.50;;;;;;6171786;23;20024;-76
2021/04/26 02:23:55;;;;;;;3.05;0.80;;;12.50;48.60;;;;;;6170281;23;20302;-75
2021/04/26 02:26:21;;;;;;;2.08;0.90;;;12.50;48.70;;;;;;6160945;23;20414;-77
2021/04/26 02:28:47;;;;;;;3.83;0.77;;;12.50;48.60;;;;;;6170758;23;20014;-77
2021/04/26 02:31:18;;;;;;;3.03;0.50;;;12.50;48.60;;;;;;6145362;23;20032;-76
2021/04/26 02:33:53;;;;;;;2.95;0.60;;;12.50;48.50;;;;;;6170767;23;20410;-76
2021/04/26 02:36:29;;;;;;;4.07;0.93;;;12.60;48.50;;;;;;6170926;23;20033;-75
2021/04/26 02:39:07;;;;;;;5.03;1.10;;;12.60;48.40;;;;;;6171043;23;20033;-76
2021/04/26 02:41:39;;;;;;;3.88;0.90;;;12.60;48.40;;;;;;6160995;23;20013;-76
2021/04/26 02:44:18;;;;;;;3.20;1.08;;;12.60;48.40;;;;;;6161039;23;20023;-76
2021/04/26 02:46:45;;;;;;;3.17;0.80;;;12.60;48.30;;;;;;6170573;23;20427;-77
2021/04/26 02:49:12;;;;;;;2.67;0.50;;;12.60;48.30;;;;;;6170938;23;20020;-75
2021/04/26 02:51:42;;;;;;;2.00;0.98;;;12.60;48.30;;;;;;6170865;23;20017;-75
2021/04/26 02:54:08;;;;;;;3.40;0.88;;;12.60;48.20;;;;;;6171156;23;20080;-76
2021/04/26 02:56:37;;;;;;;6.78;1.35;;;12.60;48.10;;;;;;6170466;23;20423;-76
2021/04/26 02:59:07;;;;;;;4.45;1.13;;;12.60;48.10;;;;;;6171340;23;20037;-76
2021/04/26 03:01:35;;;;;;;1.70;0.60;;;12.60;48.10;;;;;;6170833;23;20009;-76
2021/04/26 03:04:03;;;;;;;3.17;0.70;;;12.60;48.10;;;;;;6160225;23;20044;-76
2021/04/26 03:06:30;;;;;;;3.38;0.85;;;12.60;48.10;;;;;;6164500;23;20020;-77
2021/04/26 03:08:58;;;;;;;3.22;0.68;;;12.60;48.10;;;;;;6170978;23;20075;-76
2021/04/26 03:11:26;;;;;;;1.63;0.52;;;12.60;47.90;;;;;;6170859;23;20009;-75
2021/04/26 03:13:52;;;;;;;6.25;0.95;;;12.50;47.80;;;;;;6171295;23;20037;-75
2021/04/26 03:16:18;;;;;;;5.53;1.05;;;12.50;47.90;;;;;;6170905;23;20405;-76
2021/04/26 03:18:44;;;;;;;3.53;0.88;;;12.50;48.00;;;;;;6169398;23;20025;-76
2021/04/26 03:21:11;;;;;;;1.83;0.80;;;12.50;47.90;;;;;;6169292;23;20083;-77
2021/04/26 03:23:38;;;;;;;2.95;0.70;;;12.50;47.80;;;;;;6169795;23;20013;-76
2021/04/26 03:26:06;;;;;;;3.92;1.10;;;12.50;47.90;;;;;;6168975;23;20017;-75
2021/04/26 03:28:34;;;;;;;2.92;0.77;;;12.50;48.00;;;;;;6170028;23;20009;-77
2021/04/26 03:31:01;;;;;;;4.13;1.10;;;12.50;48.00;;;;;;6169475;23;20013;-76
2021/04/26 03:33:30;;;;;;;7.07;1.05;;;12.50;48.00;;;;;;6168780;23;20294;-77
2021/04/26 03:35:56;;;;;;;2.40;0.85;;;12.50;48.10;;;;;;6169153;23;20020;-75
2021/04/26 03:38:23;;;;;;;3.40;1.00;;;12.50;48.00;;;;;;6143497;23;20013;-75
2021/04/26 03:40:50;;;;;;;4.22;0.80;;;12.50;48.70;;;;;;6169088;23;20017;-76
2021/04/26 03:43:17;;;;;;;3.97;0.90;;;12.50;48.00;;;;;;6169193;23;20141;-75
2021/04/26 03:45:44;;;;;;;4.35;1.20;;;12.50;48.00;;;;;;6169060;23;20033;-76
2021/04/26 03:48:10;;;;;;;2.85;0.70;;;12.50;48.70;;;;;;6168878;23;20303;-77
2021/04/26 03:50:36;;;;;;;4.65;1.25;;;12.60;48.10;;;;;;6168413;23;20017;-76
2021/04/26 03:53:02;;;;;;;4.43;1.00;;;12.60;48.00;;;;;;6168801;23;20298;-76
2021/04/26 03:55:28;;;;;;;4.13;0.77;;;12.50;47.90;;;;;;6168713;23;20017;-78
2021/04/26 03:57:54;;;;;;;3.05;1.25;;;12.50;47.90;;;;;;6159067;23;20325;-77
2021/04/26 04:00:22;;;;;;;3.95;0.98;;;12.50;47.90;;;;;;6168744;23;20010;-77
2021/04/26 04:02:48;;;;;;;3.38;0.80;;;12.60;47.80;;;;;;6168298;23;20307;-77
2021/04/26 04:05:15;;;;;;;1.67;0.60;;;12.60;47.80;;;;;;6166333;23;20358;-78
2021/04/26 04:07:41;;;;;;;3.33;0.73;;;12.60;47.80;;;;;;6168529;23;20295;-76
2021/04/26 04:10:11;;;;;;;3.05;0.98;;;12.60;47.80;;;;;;6168716;23;20013;-76
2021/04/26 04:12:37;;;;;;;4.88;0.90;;;12.60;47.80;;;;;;6169473;23;20080;-76
2021/04/26 04:15:04;;;;;;;5.22;1.15;;;12.60;47.80;;;;;;6168827;23;20037;-76
2021/04/26 04:17:30;;;;;;;1.85;0.65;;;12.60;47.90;;;;;;6168778;23;20418;-77
2021/04/26 04:19:56;;;;;;;2.90;0.77;;;12.70;47.90;;;;;;6168377;23;20025;-76
2021/04/26 04:22:22;;;;;;;3.55;0.95;;;12.70;47.90;;;;;;6169383;23;20015;-76
2021/04/26 04:24:48;;;;;;;3.30;0.77;;;12.70;47.80;;;;;;6168752;23;20080;-76
2021/04/26 04:27:14;;;;;;;3.42;0.93;;;12.70;47.80;;;;;;6168690;23;20021;-78
2021/04/26 04:29:40;;;;;;;4.63;0.95;;;12.70;47.80;;;;;;6168134;23;20013;-76
2021/04/26 04:32:07;;;;;;;3.63;0.80;;;12.60;47.80;;;;;;6131485;23;20299;-76
2021/04/26 04:34:33;;;;;;;2.40;0.98;;;12.70;47.80;;;;;;6168417;23;20010;-77
2021/04/26 04:36:59;;;;;;;4.13;0.93;;;12.60;47.80;;;;;;6159257;23;20022;-76
2021/04/26 04:39:25;;;;;;;3.22;0.70;;;12.60;47.80;;;;;;6168807;23;20036;-76
2021/04/26 04:41:52;;;;;;;4.95;0.98;;;12.60;47.90;;;;;;6168565;23;20074;-79
2021/04/26 04:44:18;;;;;;;6.95;0.85;;;12.60;48.10;;;;;;6167892;23;20066;-75
2021/04/26 04:46:44;;;;;;;6.40;0.82;;;12.60;48.40;;;;;;6168386;23;20013;-77
2021/04/26 04:49:10;;;;;;;9.93;1.58;;;12.70;48.60;;;;;;6168562;23;20029;-83
2021/04/26 04:51:36;;;;;;;5.80;1.20;;;12.80;48.80;;;;;;6157309;23;20013;-79
2021/04/26 04:54:03;;;;;;;1.90;0.65;;;12.90;48.80;;;;;;6108623;23;20017;-77
2021/04/26 04:56:29;;;;;;;6.18;1.02;;;13.10;49.10;;;;;;6167612;23;20307;-74
2021/04/26 04:58:55;;;;;;;4.55;1.00;;;13.40;49.20;;;;;;6167345;23;20010;-81
2021/04/26 05:01:21;;;;;;;6.95;0.63;;;13.60;49.00;;;;;;6167909;23;20017;-75
2021/04/26 05:03:49;;;;;;;6.55;1.13;;;13.90;48.90;;;;;;6167343;23;20041;-79
2021/04/26 05:06:15;;;;;;;6.40;0.90;;;14.10;49.00;;;;;;6131690;23;20408;-77
2021/04/26 05:08:41;;;;;;;7.68;1.20;;;14.30;49.00;;;;;;6157561;23;20059;-74
2021/04/26 05:11:07;;;;;;;6.28;0.70;;;14.50;49.20;;;;;;6167910;23;20295;-75
2021/04/26 05:13:32;;;;;;;5.63;0.77;;;14.80;49.20;;;;;;6167908;23;20147;-73
2021/04/26 05:15:58;;;;;;;4.50;0.82;;;14.90;49.10;;;;;;6168134;23;20021;-77
2021/04/26 05:18:24;;;;;;;4.30;0.93;;;15.00;49.10;;;;;;6132415;23;20048;-72
2021/04/26 05:20:51;;;;;;;9.32;0.82;;;15.10;49.30;;;;;;6167112;23;20075;-76
2021/04/26 05:23:20;;;;;;;9.85;1.00;;;15.20;49.40;;;;;;6167717;23;20010;-77
2021/04/26 05:25:49;;;;;;;7.43;0.80;;;15.30;49.00;;;;;;6157940;23;20434;-77
2021/04/26 05:28:15;;;;;;;5.65;0.85;;;15.30;49.50;;;;;;6166790;23;20331;-77
2021/04/26 05:30:41;;;;;;;6.15;1.23;;;15.50;49.90;;;;;;6168042;23;20013;-78
2021/04/26 05:33:07;;;;;;;11.55;1.10;;;15.60;50.20;;;;;;6167918;23;20032;-83
2021/04/26 05:35:33;;;;;;;10.07;1.33;;;15.70;50.30;;;;;;6131931;23;20017;-83
2021/04/26 05:38:14;;;;;;;12.02;1.35;;;15.90;50.50;;;;;;6132456;23;20010;-81
2021/04/26 05:40:40;;;;;;;12.48;1.20;;;16.10;51.10;;;;;;6132391;23;20025;-76
2021/04/26 05:43:09;;;;;;;11.25;1.02;;;16.10;50.80;;;;;;6167739;23;20029;-78
2021/04/26 05:45:35;;;;;;;7.93;0.90;;;16.20;50.80;;;;;;6158623;23;20100;-77
2021/04/26 05:48:02;;;;;;;4.32;0.98;;;16.30;50.80;;;;;;6157917;23;20097;-77
2021/04/26 05:50:28;;;;;;;6.10;0.75;;;16.40;50.80;;;;;;6157856;23;20014;-81
2021/04/26 05:52:55;;;;;;;10.10;0.77;;;16.50;50.70;;;;;;6167863;23;20430;-83
2021/04/26 05:55:21;;;;;;;8.88;0.77;;;16.50;50.70;;;;;;6167862;23;20019;-81
2021/04/26 05:57:47;;;;;;;11.27;1.17;;;16.60;50.60;;;;;;6132354;23;20010;-82
2021/04/26 06:00:14;;;;;;;16.13;1.58;;;16.70;50.40;;;;;;6156847;23;20005;-79
2021/04/26 06:02:39;;;;;;;13.57;1.17;;;16.80;50.40;;;;;;6157608;23;20068;-78
2021/04/26 06:05:06;;;;;;;10.15;1.38;;;16.90;50.30;;;;;;6165842;23;20005;-76
2021/04/26 06:07:32;;;;;;;15.77;2.38;;;17.00;50.20;;;;;;6167499;23;20399;-79
2021/04/26 06:09:57;;;;;;;9.68;1.17;;;17.00;50.00;;;;;;6141656;23;20009;-80
2021/04/26 06:12:23;;;;;;;16.70;1.60;;;17.10;49.90;;;;;;6167206;23;20060;-78
2021/04/26 06:14:49;;;;;;;12.73;1.88;;;17.10;50.00;;;;;;6166709;23;20069;-79
2021/04/26 06:17:15;;;;;;;6.95;1.00;;;17.20;49.90;;;;;;6156367;23;20020;-78
2021/04/26 06:19:42;;;;;;;8.10;1.10;;;17.00;48.00;;;;;;6167058;23;20014;-78
2021/04/26 06:22:07;;;;;;;6.13;0.88;;;16.70;48.00;;;;;;6167640;23;20009;-75
2021/04/26 06:24:33;;;;;;;9.35;1.27;;;16.50;48.70;;;;;;6167699;23;20418;-78
2021/04/26 06:27:00;;;;;;;13.05;1.42;;;16.40;49.80;;;;;;6165810;23;20021;-73
2021/04/26 06:29:25;;;;;;;5.63;1.23;;;16.60;49.60;;;;;;6167903;23;20009;-74
2021/04/26 06:31:51;;;;;;;7.85;1.20;;;16.70;49.10;;;;;;6167161;23;20031;-76
2021/04/26 06:34:17;;;;;;;7.47;1.25;;;16.90;48.70;;;;;;6166345;23;20403;-76
2021/04/26 06:36:51;;;;;;;3.70;0.63;;;17.10;48.20;;;;;;6167558;23;20013;-75
2021/04/26 06:39:18;;;;;;;7.85;0.80;;;17.20;48.40;;;;;;6167268;23;20024;-77
2021/04/26 06:41:44;;;;;;;6.78;1.00;;;17.20;47.80;;;;;;6166323;23;20013;-76
2021/04/26 06:44:18;;;;;;;8.20;0.70;;;17.10;49.10;;;;;;6167188;23;20029;-76
2021/04/26 06:46:54;;;;;;;6.05;0.93;;;17.30;49.10;;;;;;6155168;23;20044;-77
2021/04/26 06:49:40;;;;;;;8.80;0.80;;;17.50;49.50;;;;;;6156577;23;20033;-77
2021/04/26 06:52:13;;;;;;;8.60;1.35;;;17.60;49.50;;;;;;6164975;23;20079;-73
2021/04/26 06:54:40;;;;;;;5.72;0.65;;;17.80;49.30;;;;;;6165747;23;20304;-76
2021/04/26 06:57:22;;;;;;;6.60;1.20;;;17.90;49.40;;;;;;6168134;23;20079;-75
2021/04/26 06:59:56;;;;;;;4.60;0.70;;;18.00;49.60;;;;;;6169016;23;20028;-72
2021/04/26 07:02:23;;;;;;;;;;;18.10;49.80;;;;;;6169295;23;20013;-74
2021/04/26 07:04:59;;;;;;;4.05;0.80;;;18.10;50.50;;;;;;6167895;23;20199;-74
2021/04/26 07:07:44;;;;;;;9.43;0.85;;;18.10;50.30;;;;;;6169221;23;20080;-75
2021/04/26 07:10:19;;;;;;;8.07;1.17;;;18.20;50.50;;;;;;6157270;23;20351;-75
2021/04/26 07:12:46;;;;;;;4.63;0.82;;;18.20;50.40;;;;;;6168665;23;20286;-74
2021/04/26 07:15:19;;;;;;;10.27;1.33;;;18.20;50.40;;;;;;6168718;23;20014;-71
2021/04/26 07:17:49;;;;;;;4.85;0.75;;;18.20;50.40;;;;;;6168790;23;20013;-72
2021/04/26 07:20:27;;;;;;;6.20;1.27;;;18.10;50.40;;;;;;6166508;23;20291;-73
2021/04/26 07:23:00;;;;;;;4.43;0.70;;;18.10;50.50;;;;;;6158661;23;20141;-74
2021/04/26 07:25:33;;;;;;;5.85;0.80;;;18.10;50.70;;;;;;6158412;23;20009;-74
2021/04/26 07:28:09;;;;;;;7.35;1.48;;;18.20;50.90;;;;;;6168671;23;20345;-72
2021/04/26 07:30:54;;;;;;;7.38;1.00;;;18.10;51.00;;;;;;6168253;23;20097;-72
2021/04/26 07:33:21;;;;;;;;;;;18.10;51.20;;;;;;6168018;23;20359;-72
2021/04/26 07:36:01;;;;;;;8.77;1.23;;;18.10;51.50;;;;;;6167871;23;20171;-72
2021/04/26 07:38:39;;;;;;;8.10;1.17;;;18.00;51.40;;;;;;6167771;23;20025;-74
2021/04/26 07:41:19;;;;;;;5.72;0.70;;;17.90;51.60;;;;;;6168983;23;20016;-73
2021/04/26 07:43:52;;;;;;;5.25;0.68;;;17.90;51.70;;;;;;6168494;23;20017;-72
2021/04/26 07:46:27;;;;;;;;;;;17.80;51.90;;;;;;6168654;23;20014;-74
2021/04/26 07:49:09;;;;;;;4.80;0.70;;;17.70;52.10;;;;;;6168724;23;19912;-73
2021/04/26 07:51:39;;;;;;;4.93;0.70;;;17.60;52.10;;;;;;6168655;23;20371;-73
2021/04/26 07:54:06;;;;;;;5.75;0.82;;;17.60;52.40;;;;;;6168136;23;20043;-73
2021/04/26 07:56:39;;;;;;;6.70;0.90;;;17.50;52.60;;;;;;6168860;23;20010;-74
2021/04/26 07:59:14;;;;;;;3.58;0.73;;;17.50;53.10;;;;;;6166725;23;20024;-73
2021/04/26 08:01:41;;;;;;;7.88;0.88;;;17.40;52.40;;;;;;6167898;23;20415;-73
2021/04/26 08:04:08;;;;;;;7.20;1.00;;;17.30;51.60;;;;;;6167974;23;20009;-73
2021/04/26 08:06:48;;;;;;;8.38;1.25;;;17.20;51.30;;;;;;6160484;23;20017;-74
2021/04/26 08:09:19;;;;;;;8.85;1.38;;;17.20;50.60;;;;;;6168493;23;20014;-74
2021/04/26 08:11:45;;;;;;;3.92;0.70;;;17.00;49.40;;;;;;6168465;23;20024;-74
2021/04/26 08:14:15;;;;;;;7.25;1.05;;;17.00;50.30;;;;;;6142985;23;20477;-80
2021/04/26 08:16:41;;;;;;;11.88;1.58;;;16.90;50.60;;;;;;6158835;23;20291;-73
2021/04/26 08:19:07;;;;;;;8.15;1.48;;;17.00;50.70;;;;;;6168581;23;20032;-74
2021/04/26 08:21:33;;;;;;;7.53;1.10;;;17.00;50.70;;;;;;6143033;23;20032;-72
2021/04/26 08:23:58;;;;;;;7.25;1.10;;;17.20;50.80;;;;;;6168761;23;20020;-73
2021/04/26 08:26:24;;;;;;;8.98;0.85;;;17.30;50.80;;;;;;6167941;23;20310;-74
2021/04/26 08:28:50;;;;;;;16.50;1.58;;;17.40;50.90;;;;;;6168430;23;20100;-75
2021/04/26 08:31:17;;;;;;;10.90;1.20;;;17.40;50.40;;;;;;6168361;23;20017;-76
2021/04/26 08:33:44;;;;;;;5.63;0.80;;;17.50;49.70;;;;;;6168273;23;20076;-76
2021/04/26 08:36:10;;;;;;;9.15;1.15;;;17.50;49.30;;;;;;6168032;23;20013;-75
2021/04/26 08:38:36;;;;;;;13.52;1.63;;;17.50;49.20;;;;;;6168138;23;20005;-75
2021/04/26 08:41:02;;;;;;;6.18;0.70;;;17.60;48.90;;;;;;6168061;23;20084;-75
2021/04/26 08:43:29;;;;;;;5.93;0.93;;;17.60;48.80;;;;;;6168555;23;20048;-74
2021/04/26 08:45:59;;;;;;;6.28;0.90;;;17.60;48.60;;;;;;6168735;23;20087;-75
2021/04/26 08:48:27;;;;;;;9.25;1.20;;;17.60;48.30;;;;;;6167745;23;20044;-80
2021/04/26 08:50:53;;;;;;;6.65;0.80;;;17.60;48.00;;;;;;6168473;23;20465;-74
2021/04/26 08:53:19;;;;;;;9.80;1.00;;;17.60;47.70;;;;;;6167790;23;20017;-74
2021/04/26 08:55:45;;;;;;;5.80;0.88;;;17.50;47.30;;;;;;6167562;23;20300;-76
2021/04/26 08:58:11;;;;;;;6.88;0.77;;;17.50;47.10;;;;;;6168404;23;20049;-77
2021/04/26 09:00:36;;;;;;;5.13;0.80;;;17.50;46.90;;;;;;6158543;23;20013;-76
2021/04/26 09:03:05;;;;;;;6.75;0.85;;;17.40;46.90;;;;;;6168188;23;20404;-77
2021/04/26 09:05:34;;;;;;;8.85;1.23;;;17.40;46.90;;;;;;6157260;23;20427;-77
2021/04/26 09:08:03;;;;;;;4.38;1.02;;;17.30;47.10;;;;;;6158145;23;20143;-83
2021/04/26 09:10:41;;;;;;;7.50;0.90;;;17.30;47.30;;;;;;6132452;23;20380;-77
2021/04/26 09:13:27;;;;;;;7.63;1.10;;;17.20;47.10;;;;;;6167636;23;20330;-79
2021/04/26 09:15:54;;;;;;;4.55;0.90;;;17.20;46.90;;;;;;6157150;23;20006;-79
2021/04/26 09:18:21;;;;;;;4.95;0.90;;;17.10;47.30;;;;;;6167691;23;20064;-81
2021/04/26 09:20:49;;;;;;;5.53;1.10;;;17.10;47.20;;;;;;6108865;23;20009;-80
2021/04/26 09:23:30;;;;;;;7.72;0.95;;;17.10;47.20;;;;;;6167281;23;20276;-84
2021/04/26 09:25:56;;;;;;;6.13;0.90;;;17.10;45.80;;;;;;6131860;23;20040;-81
2021/04/26 09:32:49;;;;;;;;;;;;;;;;;;;;;
2021/04/26 09:35:55;;;;;;;7.68;1.23;;;16.90;44.40;;;;;;6011575;23;20023;-76
2021/04/26 09:38:36;;;;;;;10.48;0.95;;;16.90;42.90;;;;;;6012663;23;20016;-78
2021/04/26 09:41:22;;;;;;;10.82;1.30;;;16.80;42.60;;;;;;6020646;23;20025;-85
2021/04/26 09:44:09;;;;;;;9.45;1.33;;;16.70;43.10;;;;;;6016034;23;20019;-78
2021/04/26 09:46:47;;;;;;;14.02;3.78;;;16.70;43.40;;;;;;5985493;23;20035;-78
2021/04/26 09:49:21;;;;;;;11.75;2.40;;;16.60;44.10;;;;;;6019111;23;20026;-79
2021/04/26 09:52:12;;;;;;;9.55;2.00;;;16.60;45.10;;;;;;6167051;23;20354;-80
2021/04/26 09:54:41;;;;;;;9.43;2.28;;;16.60;45.70;;;;;;6167467;23;20084;-79
2021/04/26 09:57:07;;;;;;;8.80;1.58;;;16.60;45.50;;;;;;6160556;23;20311;-79
2021/04/26 09:59:34;;;;;;;5.05;1.15;;;16.50;45.70;;;;;;6167632;23;20010;-79
2021/04/26 10:02:02;;;;;;;11.40;1.73;;;16.50;45.80;;;;;;6166294;23;20033;-79
2021/04/26 10:04:28;;;;;;;6.20;1.27;;;16.50;46.00;;;;;;6166630;23;20312;-79
2021/04/26 10:06:54;;;;;;;7.68;1.77;;;16.50;46.20;;;;;;6160728;23;20067;-78
2021/04/26 10:09:21;;;;;;;10.85;1.30;;;16.50;46.10;;;;;;6167954;23;20040;-77
2021/04/26 10:11:46;;;;;;;6.88;1.38;;;16.50;46.00;;;;;;6168178;23;20097;-78
2021/04/26 10:14:15;;;;;;;5.55;1.40;;;16.50;45.80;;;;;;6166942;23;20017;-79
2021/04/26 10:16:57;;;;;;;4.63;1.02;;;16.50;45.10;;;;;;6167979;23;20021;-75
2021/04/26 10:19:31;;;;;;;5.95;1.08;;;16.50;43.80;;;;;;6168418;23;20021;-79
2021/04/26 10:21:58;;;;;;;7.72;1.25;;;16.40;42.40;;;;;;6157333;23;20009;-80
2021/04/26 10:24:27;;;;;;;6.75;1.20;;;16.30;42.30;;;;;;6131631;23;20107;-83
2021/04/26 10:27:00;;;;;;;7.13;1.50;;;16.30;42.10;;;;;;6131727;23;20458;-76
2021/04/26 10:29:27;;;;;;;11.82;2.30;;;16.30;41.90;;;;;;6169214;23;20001;-77
2021/04/26 10:31:59;;;;;;;13.27;2.10;;;16.20;41.60;;;;;;6169195;23;20013;-74
2021/04/26 10:34:36;;;;;;;9.25;1.40;;;16.10;42.00;;;;;;6169830;23;20009;-75
2021/04/26 10:37:14;;;;;;;7.53;1.30;;;16.00;42.70;;;;;;6169341;23;20065;-75
2021/04/26 10:40:08;;;;;;;14.43;1.48;;;16.10;42.80;;;;;;6169337;23;20084;-81
2021/04/26 10:42:49;;;;;;;10.35;1.17;;;16.10;42.70;;;;;;6133092;23;20029;-81
2021/04/26 10:45:20;;;;;;;11.63;1.00;;;16.10;42.90;;;;;;6169302;23;20021;-77
2021/04/26 10:48:09;;;;;;;4.20;0.77;;;16.10;43.00;;;;;;6169431;23;20039;-76
2021/04/26 10:50:44;;;;;;;9.73;1.23;;;16.10;44.30;;;;;;6169163;23;20324;-71
2021/04/26 10:53:11;;;;;;;10.38;1.40;;;16.10;44.90;;;;;;6168683;23;20014;-75
2021/04/26 10:55:46;;;;;;;12.95;1.20;;;16.10;45.10;;;;;;6169379;23;20014;-77
2021/04/26 10:58:29;;;;;;;11.90;1.38;;;16.10;45.70;;;;;;6168495;23;20017;-77
2021/04/26 11:00:55;;;;;;;9.23;1.83;;;16.10;45.50;;;;;;6169157;23;20025;-71
2021/04/26 11:03:25;;;;;;;8.57;0.93;;;16.10;45.70;;;;;;6169376;23;20417;-69
2021/04/26 11:05:53;;;;;;;8.25;0.80;;;16.10;45.90;;;;;;6166987;23;20088;-73
2021/04/26 11:11:38;;;;;;;9.70;1.13;;;16.00;47.10;;;;;;6042210;23;20063;-73
2021/04/26 11:14:08;;;;;;;5.90;0.93;;;16.00;47.50;;;;;;6050342;23;20046;-73
2021/04/26 11:16:54;;;;;;;6.85;0.90;;;16.10;47.70;;;;;;6108384;23;20419;-73
2021/04/26 11:19:20;;;;;;;6.18;0.90;;;16.00;48.50;;;;;;6159898;23;20014;-74
2021/04/26 11:21:48;;;;;;;6.93;1.10;;;16.00;48.40;;;;;;6169931;23;20323;-73
2021/04/26 11:24:26;;;;;;;9.57;0.73;;;16.00;48.50;;;;;;6168842;23;20021;-73
2021/04/26 11:27:15;;;;;;;7.53;0.95;;;16.00;48.50;;;;;;6169016;23;20005;-71
2021/04/26 11:29:44;;;;;;;8.93;0.80;;;16.00;48.40;;;;;;6169231;23;20018;-72
2021/04/26 11:32:12;;;;;;;6.43;0.82;;;15.90;48.40;;;;;;6169156;23;20013;-73
2021/04/26 11:34:47;;;;;;;8.77;1.00;;;15.90;48.50;;;;;;6133805;23;20060;-73
2021/04/26 11:37:20;;;;;;;8.02;0.77;;;15.90;48.70;;;;;;6169300;23;20013;-73
2021/04/26 11:39:47;;;;;;;4.22;0.80;;;15.90;48.70;;;;;;6168759;23;20013;-73
2021/04/26 11:42:19;;;;;;;8.02;0.98;;;15.90;48.80;;;;;;6169258;23;20018;-72
2021/04/26 11:44:45;;;;;;;5.00;0.70;;;15.90;49.00;;;;;;6158753;23;20044;-72
2021/04/26 11:47:16;;;;;;;7.68;0.90;;;15.90;49.10;;;;;;6169772;23;20036;-75
2021/04/26 11:49:50;;;;;;;5.18;1.10;;;15.90;48.80;;;;;;6158574;23;20092;-75
2021/04/26 11:52:22;;;;;;;4.90;1.05;;;15.90;48.90;;;;;;6168668;23;20024;-71
2021/04/26 11:55:10;;;;;;;5.22;0.80;;;15.90;49.10;;;;;;6168988;23;20099;-73
2021/04/26 11:57:43;;;;;;;2.60;0.80;;;15.90;49.30;;;;;;6159092;23;20342;-72
2021/04/26 12:00:16;;;;;;;4.45;0.65;;;15.90;49.50;;;;;;6169053;23;20473;-74
2021/04/26 12:02:44;;;;;;;5.35;0.60;;;15.90;49.50;;;;;;6143865;23;20087;-72
2021/04/26 12:05:25;;;;;;;5.22;0.77;;;15.80;49.50;;;;;;6168034;23;20009;-74
2021/04/26 12:07:52;;;;;;;7.65;1.10;;;15.80;49.30;;;;;;6169230;23;20071;-73
2021/04/26 12:10:25;;;;;;;5.40;0.90;;;15.90;49.30;;;;;;6169140;23;20013;-72
2021/04/26 12:13:03;;;;;;;4.85;1.08;;;15.80;49.20;;;;;;6168629;23;20013;-71
2021/04/26 12:15:30;;;;;;;3.92;0.80;;;15.80;49.20;;;;;;6168905;23;20017;-73
2021/04/26 12:17:58;;;;;;;4.75;0.98;;;15.80;49.20;;;;;;6169088;23;20013;-72
2021/04/26 12:20:25;;;;;;;6.38;1.17;;;15.80;49.20;;;;;;6168653;23;20017;-75
2021/04/26 12:22:54;;;;;;;4.70;1.10;;;15.80;49.30;;;;;;6169065;23;20085;-73
2021/04/26 12:25:21;;;;;;;3.97;0.80;;;15.70;49.40;;;;;;6168399;23;20013;-73
2021/04/26 12:27:47;;;;;;;3.75;0.57;;;15.70;49.40;;;;;;6158839;23;20059;-72
2021/04/26 12:30:21;;;;;;;3.20;0.70;;;15.80;49.60;;;;;;6168700;23;20049;-75
2021/04/26 12:32:48;;;;;;;4.18;0.63;;;15.70;49.40;;;;;;6168993;23;20033;-72
2021/04/26 12:35:29;;;;;;;5.55;0.98;;;15.70;49.50;;;;;;6168933;23;20023;-72
2021/04/26 12:37:57;;;;;;;6.60;0.70;;;15.70;49.70;;;;;;6168563;23;20009;-73
2021/04/26 12:40:31;;;;;;;3.72;0.75;;;15.80;49.70;;;;;;6168597;23;20010;-73
2021/04/26 12:42:56;;;;;;;4.20;0.70;;;15.70;49.80;;;;;;6168526;23;20044;-74
2021/04/26 12:45:24;;;;;;;5.88;1.65;;;15.70;49.90;;;;;;6168438;23;20013;-72
2021/04/26 12:47:58;;;;;;;2.63;0.52;;;15.70;49.90;;;;;;6158582;23;20144;-72
2021/04/26 12:50:50;;;;;;;2.08;0.55;;;15.70;49.90;;;;;;6168091;23;20427;-72
2021/04/26 12:53:26;;;;;;;4.55;1.25;;;15.70;50.10;;;;;;6167865;23;20430;-72
2021/04/26 12:56:04;;;;;;;2.97;0.52;;;15.70;49.80;;;;;;6168027;23;20028;-71
2021/04/26 12:58:31;;;;;;;2.40;0.60;;;15.70;50.00;;;;;;6168765;23;20005;-71
2021/04/26 13:01:13;;;;;;;4.10;0.90;;;15.80;48.60;;;;;;6168135;23;20017;-73
2021/04/26 13:03:52;;;;;;;5.20;0.88;;;15.80;47.20;;;;;;6168506;23;20009;-73
2021/04/26 13:06:20;;;;;;;3.83;1.20;;;15.80;46.50;;;;;;6157787;23;20093;-74
2021/04/26 13:08:51;;;;;;;4.53;0.70;;;15.80;46.50;;;;;;6168202;23;20029;-73
2021/04/26 13:11:46;;;;;;;4.72;1.45;;;15.80;47.70;;;;;;6168334;23;20032;-74